Time;durP1;ratioP1;P1;durP2;ratioP2;P2;SDS_P1;SDS_P2;PMS_P1;PMS_P2;Temp;Humidity;BMP_temperature;BMP_pressure;BME280_temperature;BME280_humidity;BME280_pressure;Samples;Min_cycle;Max_cycle;Signal;HPM_P1;HPM_P2
2022/12/11 00:02:07;;;;;;;21.30;13.65;;;-0.60;99.90;;;;;;5019510;28;20048;-51
2022/12/11 00:04:53;;;;;;;21.20;13.38;;;-0.60;99.90;;;;;;5012467;28;20034;-52
2022/12/11 00:07:38;;;;;;;21.02;13.45;;;-0.50;99.90;;;;;;5012327;28;20030;-50
2022/12/11 00:10:24;;;;;;;20.05;13.43;;;-0.50;99.90;;;;;;5012661;28;20124;-53
2022/12/11 00:13:10;;;;;;;23.10;14.05;;;-0.50;99.90;;;;;;5013126;28;20494;-51
2022/12/11 00:15:59;;;;;;;20.10;13.95;;;-0.40;99.90;;;;;;5008935;28;20498;-53
2022/12/11 00:18:45;;;;;;;21.63;14.30;;;-0.40;99.90;;;;;;5006358;28;20497;-51
2022/12/11 00:21:31;;;;;;;22.17;14.57;;;-0.40;99.90;;;;;;5007314;28;20541;-50
2022/12/11 00:24:17;;;;;;;22.35;15.13;;;-0.50;99.90;;;;;;5005251;28;20116;-55
2022/12/11 00:27:03;;;;;;;22.15;14.10;;;-0.50;99.90;;;;;;5009039;28;20022;-53
2022/12/11 00:29:49;;;;;;;25.13;15.18;;;-0.50;99.90;;;;;;5007427;28;20085;-53
2022/12/11 00:32:35;;;;;;;22.52;14.40;;;-0.50;99.90;;;;;;5011035;28;20025;-50
2022/12/11 00:35:21;;;;;;;22.45;14.80;;;-0.40;99.90;;;;;;5000002;28;20042;-50
2022/12/11 00:38:12;;;;;;;23.63;14.68;;;-0.40;99.90;;;;;;5002043;28;20053;-56
2022/12/11 00:40:59;;;;;;;22.42;14.60;;;-0.30;99.90;;;;;;5004408;28;20113;-54
2022/12/11 00:43:46;;;;;;;22.52;14.73;;;-0.30;99.90;;;;;;5004504;28;20498;-55
2022/12/11 00:46:32;;;;;;;25.00;16.00;;;-0.30;99.90;;;;;;5002988;28;20130;-52
2022/12/11 00:49:18;;;;;;;26.67;16.38;;;-0.40;99.90;;;;;;5003586;28;20511;-55
2022/12/11 00:52:04;;;;;;;25.83;17.65;;;-0.40;99.90;;;;;;5005538;28;20035;-55
2022/12/11 00:54:50;;;;;;;22.92;15.02;;;-0.40;99.90;;;;;;5008093;28;20057;-56
2022/12/11 00:57:36;;;;;;;24.20;15.82;;;-0.30;99.90;;;;;;5007817;28;20113;-53
2022/12/11 01:00:22;;;;;;;25.63;16.45;;;-0.30;99.90;;;;;;5021140;28;20048;-57
2022/12/11 01:03:08;;;;;;;24.40;16.73;;;-0.30;99.90;;;;;;5014819;28;20149;-55
2022/12/11 01:05:54;;;;;;;27.38;17.60;;;-0.30;99.90;;;;;;5024315;28;20029;-50
2022/12/11 01:08:41;;;;;;;22.40;15.82;;;-0.30;99.90;;;;;;5022948;28;20053;-55
2022/12/11 01:11:26;;;;;;;24.45;15.98;;;-0.30;99.90;;;;;;5017293;28;20048;-53
2022/12/11 01:14:12;;;;;;;24.15;15.90;;;-0.20;99.90;;;;;;5027612;28;20033;-52
2022/12/11 01:16:58;;;;;;;29.48;17.98;;;-0.30;99.90;;;;;;5023239;28;20022;-51
2022/12/11 01:19:44;;;;;;;24.13;16.02;;;-0.20;99.90;;;;;;5020347;28;20048;-52
2022/12/11 01:22:30;;;;;;;24.13;16.33;;;-0.20;99.90;;;;;;5019676;28;20022;-52
2022/12/11 01:25:16;;;;;;;24.77;16.65;;;-0.40;99.90;;;;;;5023509;28;20498;-51
2022/12/11 01:28:03;;;;;;;24.88;16.33;;;-0.30;99.90;;;;;;5023482;28;20027;-53
2022/12/11 01:30:49;;;;;;;23.88;16.52;;;-0.20;99.90;;;;;;5024839;28;20022;-53
2022/12/11 01:33:35;;;;;;;25.85;16.15;;;-0.10;99.90;;;;;;5017985;28;20060;-52
2022/12/11 01:36:22;;;;;;;24.85;16.35;;;-0.10;99.90;;;;;;5031524;28;20040;-52
2022/12/11 01:39:08;;;;;;;26.02;16.60;;;-0.10;99.90;;;;;;5031931;28;20034;-54
2022/12/11 01:41:59;;;;;;;25.42;16.30;;;-0.30;99.90;;;;;;5031177;28;20025;-53
2022/12/11 01:44:45;;;;;;;27.55;16.95;;;-0.40;99.90;;;;;;5032088;28;20097;-49
2022/12/11 01:47:31;;;;;;;25.38;16.30;;;-0.30;99.90;;;;;;5023414;28;20018;-54
2022/12/11 01:50:17;;;;;;;24.65;14.85;;;-0.40;99.90;;;;;;5012414;28;20038;-56
2022/12/11 01:53:07;;;;;;;24.45;15.35;;;-0.40;99.90;;;;;;5008094;28;20053;-50
2022/12/11 01:55:56;;;;;;;24.98;15.60;;;-0.50;99.90;;;;;;5030642;28;20100;-55
2022/12/11 01:58:47;;;;;;;23.40;14.60;;;-0.50;99.90;;;;;;5031303;28;20026;-53
2022/12/11 02:01:38;;;;;;;23.85;14.73;;;-0.50;99.90;;;;;;5029880;28;20576;-55
2022/12/11 02:04:25;;;;;;;22.65;15.05;;;-0.40;99.90;;;;;;5030729;28;20032;-52
2022/12/11 02:07:11;;;;;;;24.83;14.63;;;-0.40;99.90;;;;;;4992578;28;20109;-53
2022/12/11 02:09:57;;;;;;;23.15;14.68;;;-0.50;99.90;;;;;;4991747;28;20117;-55
2022/12/11 02:13:11;;;;;;;20.52;13.38;;;-0.50;99.90;;;;;;4991415;28;20026;-54
2022/12/11 02:16:28;;;;;;;23.52;14.48;;;-0.60;99.90;;;;;;4991962;28;20026;-55
2022/12/11 02:19:27;;;;;;;23.65;14.02;;;-0.50;99.90;;;;;;4991897;28;20023;-53
2022/12/11 02:22:21;;;;;;;25.10;15.90;;;-0.40;99.90;;;;;;4990294;28;20026;-52
2022/12/11 02:25:21;;;;;;;24.03;15.23;;;-0.40;99.90;;;;;;5010815;28;20105;-53
2022/12/11 02:28:16;;;;;;;24.02;15.45;;;-0.70;99.90;;;;;;5027347;28;20033;-50
2022/12/11 02:31:26;;;;;;;24.80;16.08;;;-0.80;99.90;;;;;;5029641;28;20025;-50
2022/12/11 02:34:18;;;;;;;23.13;15.25;;;-0.80;99.90;;;;;;5029139;28;20026;-49
2022/12/11 02:37:11;;;;;;;27.20;16.90;;;-0.70;99.90;;;;;;5030511;28;20039;-50
2022/12/11 02:39:57;;;;;;;23.60;14.80;;;-0.60;99.90;;;;;;5030231;28;20017;-54
2022/12/11 02:42:45;;;;;;;25.33;15.60;;;-0.50;99.90;;;;;;5030586;28;20133;-55
2022/12/11 02:45:32;;;;;;;23.23;14.63;;;-0.60;99.90;;;;;;5030346;28;20029;-52
2022/12/11 02:48:21;;;;;;;23.70;15.15;;;-0.60;99.90;;;;;;5029803;28;20043;-55
2022/12/11 02:51:09;;;;;;;22.42;14.88;;;-0.50;99.90;;;;;;5029545;28;20556;-50
2022/12/11 02:53:57;;;;;;;23.90;14.50;;;-0.50;99.90;;;;;;5030426;28;20036;-54
2022/12/11 02:56:49;;;;;;;23.67;15.25;;;-0.50;99.90;;;;;;5030303;28;20048;-51
2022/12/11 02:59:39;;;;;;;22.85;14.63;;;-0.50;99.90;;;;;;5029528;28;20566;-52
2022/12/11 03:02:25;;;;;;;24.70;16.40;;;-0.60;99.90;;;;;;5029395;28;20049;-55
2022/12/11 03:05:13;;;;;;;24.05;14.98;;;-0.60;99.90;;;;;;5025281;28;20109;-49
2022/12/11 03:08:00;;;;;;;23.67;14.55;;;-0.70;99.90;;;;;;5009969;28;20036;-51
2022/12/11 03:10:46;;;;;;;26.52;16.25;;;-0.70;99.90;;;;;;5009639;28;20018;-49
2022/12/11 03:13:32;;;;;;;27.85;17.15;;;-0.70;99.90;;;;;;5010572;28;20029;-55
2022/12/11 03:16:35;;;;;;;37.90;21.15;;;-0.60;99.90;;;;;;5010200;28;20032;-53
2022/12/11 03:19:37;;;;;;;32.22;18.40;;;-0.70;99.90;;;;;;5008830;28;20112;-50
2022/12/11 03:22:37;;;;;;;27.15;16.25;;;-0.80;99.90;;;;;;5010243;28;20022;-49
2022/12/11 03:25:55;;;;;;;30.88;17.83;;;-0.80;99.90;;;;;;5010427;28;20026;-54
2022/12/11 03:28:53;;;;;;;27.88;16.63;;;-0.90;99.90;;;;;;5009980;28;20033;-52
2022/12/11 03:31:56;;;;;;;28.80;18.05;;;-1.00;99.90;;;;;;5009721;28;20032;-54
2022/12/11 03:35:40;;;;;;;26.13;16.60;;;-1.10;99.90;;;;;;5010530;28;20038;-51
2022/12/11 03:38:35;;;;;;;27.02;16.25;;;-1.00;99.90;;;;;;4931196;29;20418;-54
2022/12/11 03:41:24;;;;;;;25.02;15.60;;;-1.10;99.90;;;;;;4929532;29;20040;-54
2022/12/11 03:44:11;;;;;;;26.08;16.13;;;-1.00;99.90;;;;;;5010136;28;20062;-49
2022/12/11 03:47:00;;;;;;;24.33;15.60;;;-1.00;99.90;;;;;;5010165;28;20018;-50
2022/12/11 03:49:48;;;;;;;25.45;15.63;;;-1.00;99.90;;;;;;5010024;28;20037;-51
2022/12/11 03:52:36;;;;;;;25.25;15.85;;;-0.90;99.90;;;;;;5009857;28;20045;-53
2022/12/11 03:55:23;;;;;;;27.35;16.00;;;-1.00;99.90;;;;;;5009788;28;20061;-50
2022/12/11 03:58:09;;;;;;;24.38;15.60;;;-1.00;99.90;;;;;;5009730;28;20402;-52
2022/12/11 04:00:55;;;;;;;23.83;15.30;;;-1.00;99.90;;;;;;4994667;28;20514;-52
2022/12/11 04:03:41;;;;;;;21.50;14.45;;;-1.00;99.90;;;;;;5009660;28;20049;-51
2022/12/11 04:06:27;;;;;;;22.92;15.30;;;-1.00;99.90;;;;;;4994840;28;20026;-49
2022/12/11 04:09:13;;;;;;;22.05;14.63;;;-1.00;99.90;;;;;;4990049;28;20031;-49
2022/12/11 04:11:59;;;;;;;22.83;15.30;;;-1.00;99.90;;;;;;4989786;28;20034;-50
2022/12/11 04:15:00;;;;;;;21.45;14.70;;;-1.00;99.90;;;;;;4990066;28;20022;-49
2022/12/11 04:24:16;;;;;;;20.60;13.43;;;-0.90;99.90;;;;;;4988745;28;20449;-54
2022/12/11 04:27:02;;;;;;;22.48;13.85;;;-0.90;99.90;;;;;;4990799;28;20023;-49
2022/12/11 04:29:48;;;;;;;19.90;13.98;;;-0.80;99.90;;;;;;4997887;28;20039;-52
2022/12/11 04:32:34;;;;;;;19.40;13.50;;;-1.00;99.90;;;;;;5005394;28;20050;-55
2022/12/11 04:35:21;;;;;;;19.23;13.32;;;-0.90;99.90;;;;;;5006881;28;20038;-55
2022/12/11 04:38:06;;;;;;;18.63;13.50;;;-1.00;99.90;;;;;;5005550;28;20062;-49
2022/12/11 04:41:00;;;;;;;19.35;13.77;;;-0.90;99.90;;;;;;5015918;28;20033;-51
2022/12/11 04:43:46;;;;;;;21.00;13.88;;;-1.10;99.90;;;;;;5026336;28;20026;-53
2022/12/11 04:46:32;;;;;;;22.85;14.57;;;-1.00;99.90;;;;;;5025145;28;20033;-48
2022/12/11 04:49:18;;;;;;;21.38;14.48;;;-1.00;99.90;;;;;;5021371;28;20038;-50
2022/12/11 04:52:04;;;;;;;21.08;14.10;;;-0.90;99.90;;;;;;5012685;28;20041;-54
2022/12/11 04:54:50;;;;;;;22.02;14.70;;;-1.00;99.90;;;;;;5012747;28;20060;-53
2022/12/11 04:57:36;;;;;;;19.75;14.05;;;-0.90;99.90;;;;;;5013351;28;20037;-54
2022/12/11 05:00:22;;;;;;;19.15;13.45;;;-0.90;99.90;;;;;;5012874;28;20097;-52
2022/12/11 05:03:08;;;;;;;23.02;14.50;;;-1.00;99.90;;;;;;5012492;28;20030;-54
2022/12/11 05:05:54;;;;;;;20.33;14.27;;;-1.00;99.90;;;;;;5002051;28;20022;-57
2022/12/11 05:08:41;;;;;;;19.67;14.18;;;-1.10;99.90;;;;;;4992690;28;20035;-53
2022/12/11 05:11:27;;;;;;;19.00;12.93;;;-1.00;99.90;;;;;;5000167;28;20061;-50
2022/12/11 05:14:13;;;;;;;19.17;13.13;;;-0.90;99.90;;;;;;5022456;28;20032;-48
2022/12/11 05:16:59;;;;;;;20.17;13.45;;;-0.90;99.90;;;;;;5027749;28;20029;-51
2022/12/11 05:19:50;;;;;;;17.17;12.57;;;-0.90;99.90;;;;;;5026428;28;20030;-49
2022/12/11 05:22:37;;;;;;;17.67;12.48;;;-0.90;99.90;;;;;;5024902;28;20040;-48
2022/12/11 05:25:23;;;;;;;18.85;13.85;;;-0.80;99.90;;;;;;5032447;28;20104;-55
2022/12/11 05:28:09;;;;;;;18.88;13.38;;;-0.90;99.90;;;;;;5031405;28;20076;-55
2022/12/11 05:31:03;;;;;;;20.05;13.88;;;-0.90;99.90;;;;;;5029901;28;20064;-53
2022/12/11 05:33:50;;;;;;;17.98;12.70;;;-0.80;99.90;;;;;;5014807;28;20109;-50
2022/12/11 05:36:36;;;;;;;19.15;13.07;;;-0.90;99.90;;;;;;4998056;28;20044;-51
2022/12/11 05:39:22;;;;;;;20.33;13.85;;;-0.80;99.90;;;;;;5011600;28;20033;-55
2022/12/11 05:42:08;;;;;;;21.55;14.13;;;-0.80;99.90;;;;;;5020129;28;20032;-58
2022/12/11 05:44:53;;;;;;;20.25;13.07;;;-0.80;99.90;;;;;;5026519;28;20030;-54
2022/12/11 05:47:39;;;;;;;17.15;12.95;;;-0.80;99.90;;;;;;5031530;28;20024;-55
2022/12/11 05:50:25;;;;;;;17.05;12.02;;;-0.90;99.90;;;;;;5030358;28;20026;-56
2022/12/11 05:53:11;;;;;;;18.95;12.77;;;-1.00;99.90;;;;;;5031238;28;20533;-56
2022/12/11 05:56:06;;;;;;;20.10;12.18;;;-1.00;99.90;;;;;;5031021;28;20026;-48
2022/12/11 05:58:53;;;;;;;17.25;12.18;;;-0.90;99.90;;;;;;5031291;28;20052;-50
2022/12/11 06:01:41;;;;;;;17.13;11.73;;;-1.00;99.90;;;;;;5030208;28;20021;-48
2022/12/11 06:04:27;;;;;;;15.32;11.40;;;-1.00;99.90;;;;;;5030926;28;20105;-50
2022/12/11 06:07:13;;;;;;;16.15;11.48;;;-1.10;99.90;;;;;;4992580;28;20023;-56
2022/12/11 06:09:59;;;;;;;20.13;12.23;;;-1.10;99.90;;;;;;4992313;28;20030;-49
2022/12/11 06:12:45;;;;;;;18.08;12.20;;;-1.00;99.90;;;;;;4992503;28;20057;-54
2022/12/11 06:15:31;;;;;;;16.77;11.43;;;-0.90;99.90;;;;;;4991296;28;20034;-51
2022/12/11 06:18:17;;;;;;;16.30;10.90;;;-1.00;99.90;;;;;;4991904;28;20398;-49
2022/12/11 06:21:12;;;;;;;17.80;11.95;;;-0.90;99.90;;;;;;4990938;28;20435;-53
2022/12/11 06:24:00;;;;;;;16.95;12.15;;;-1.00;99.90;;;;;;4991330;28;20058;-49
2022/12/11 06:26:46;;;;;;;18.70;12.00;;;-1.00;99.90;;;;;;4991360;28;20014;-53
2022/12/11 06:29:32;;;;;;;16.90;11.35;;;-1.00;99.90;;;;;;4991531;28;20047;-52
2022/12/11 06:32:18;;;;;;;15.68;10.60;;;-1.00;99.90;;;;;;4991633;28;20035;-50
2022/12/11 06:35:05;;;;;;;16.08;11.23;;;-1.00;99.90;;;;;;4991845;28;20411;-48
2022/12/11 06:37:51;;;;;;;16.10;10.45;;;-1.00;99.90;;;;;;4977804;28;20069;-47
2022/12/11 06:40:37;;;;;;;16.05;10.85;;;-1.10;99.90;;;;;;4991608;28;20109;-57
2022/12/11 06:43:24;;;;;;;18.92;11.85;;;-1.00;99.90;;;;;;4991718;28;20029;-56
2022/12/11 06:46:12;;;;;;;15.10;10.77;;;-1.10;99.90;;;;;;4990626;28;20034;-52
2022/12/11 06:48:58;;;;;;;17.52;10.35;;;-1.10;99.90;;;;;;4992112;28;20047;-55
2022/12/11 06:51:44;;;;;;;16.80;10.63;;;-1.10;99.90;;;;;;4991224;28;20027;-52
2022/12/11 06:54:30;;;;;;;17.08;11.23;;;-1.10;99.90;;;;;;4991693;28;20037;-53
2022/12/11 06:57:18;;;;;;;14.32;9.98;;;-1.10;99.90;;;;;;4991446;28;20030;-51
2022/12/11 07:00:04;;;;;;;15.20;9.82;;;-1.10;99.90;;;;;;4990049;28;20031;-57
2022/12/11 07:02:50;;;;;;;17.63;10.93;;;-1.00;99.90;;;;;;4990824;28;20037;-51
2022/12/11 07:05:36;;;;;;;15.02;10.27;;;-1.20;99.90;;;;;;4999395;28;20494;-53
2022/12/11 07:08:22;;;;;;;17.92;11.13;;;-1.10;99.90;;;;;;5010859;28;20551;-54
2022/12/11 07:11:12;;;;;;;16.20;11.20;;;-1.10;99.90;;;;;;5009618;28;20034;-53
2022/12/11 07:13:59;;;;;;;15.50;10.10;;;-1.10;99.90;;;;;;5010827;28;20046;-52
2022/12/11 07:16:45;;;;;;;16.25;10.43;;;-1.00;99.90;;;;;;5010185;28;20029;-53
2022/12/11 07:19:31;;;;;;;15.85;10.73;;;-1.00;99.90;;;;;;5009564;28;20032;-49
2022/12/11 07:22:17;;;;;;;17.33;12.00;;;-1.00;99.90;;;;;;4995877;28;20030;-49
2022/12/11 07:25:03;;;;;;;16.27;11.05;;;-1.00;99.90;;;;;;5010531;28;20079;-57
2022/12/11 07:27:49;;;;;;;17.23;10.43;;;-0.90;99.90;;;;;;5009916;28;20030;-52
2022/12/11 07:30:37;;;;;;;17.33;10.80;;;-1.00;99.90;;;;;;5008513;28;20068;-51
2022/12/11 07:33:23;;;;;;;17.27;10.85;;;-1.10;99.90;;;;;;5021715;28;20021;-50
2022/12/11 07:36:11;;;;;;;14.65;10.10;;;-1.10;99.90;;;;;;5029031;28;20401;-53
2022/12/11 07:38:58;;;;;;;15.43;10.57;;;-1.00;99.90;;;;;;5029479;28;20455;-55
2022/12/11 07:41:45;;;;;;;16.33;11.13;;;-1.00;99.90;;;;;;5028424;28;20108;-53
2022/12/11 07:44:31;;;;;;;15.15;10.70;;;-1.20;99.90;;;;;;5029788;28;20059;-56
2022/12/11 07:47:17;;;;;;;17.23;10.20;;;-1.20;99.90;;;;;;5029835;28;20389;-56
2022/12/11 07:50:04;;;;;;;16.20;10.48;;;-1.10;99.90;;;;;;5029927;28;20067;-54
2022/12/11 07:52:50;;;;;;;15.90;10.40;;;-1.00;99.90;;;;;;5031527;28;20025;-58
2022/12/11 07:55:36;;;;;;;18.33;11.40;;;-1.00;99.90;;;;;;5029061;28;20451;-53
2022/12/11 07:58:21;;;;;;;15.65;10.85;;;-1.00;99.90;;;;;;5028880;28;20108;-50
2022/12/11 08:01:15;;;;;;;19.27;10.65;;;-0.90;99.90;;;;;;5028564;28;20025;-55
2022/12/11 08:04:04;;;;;;;15.57;10.85;;;-0.90;99.90;;;;;;5029835;28;20132;-55
2022/12/11 08:06:49;;;;;;;16.27;10.57;;;-0.90;99.90;;;;;;5019543;28;20022;-57
2022/12/11 08:09:35;;;;;;;16.08;10.93;;;-0.90;99.90;;;;;;5017969;28;20029;-55
2022/12/11 08:12:21;;;;;;;17.92;12.02;;;-0.90;99.90;;;;;;5020721;28;20121;-55
2022/12/11 08:15:08;;;;;;;15.80;10.90;;;-0.80;99.90;;;;;;5029968;28;20088;-49
2022/12/11 08:17:54;;;;;;;15.43;10.13;;;-0.70;99.90;;;;;;5033445;28;20041;-51
2022/12/11 08:20:40;;;;;;;17.30;10.50;;;-0.70;99.90;;;;;;5031595;28;20045;-48
2022/12/11 08:23:25;;;;;;;17.90;11.55;;;-0.90;99.90;;;;;;5032976;28;20075;-51
2022/12/11 08:26:34;;;;;;;18.65;11.88;;;-1.00;99.90;;;;;;5032716;28;20086;-48
2022/12/11 08:29:20;;;;;;;15.38;10.60;;;-0.90;99.90;;;;;;5031595;28;20029;-51
2022/12/11 08:32:06;;;;;;;19.45;12.82;;;-0.90;99.90;;;;;;5032592;28;20099;-48
2022/12/11 08:34:52;;;;;;;19.27;12.27;;;-0.90;99.90;;;;;;5018419;28;20533;-55
2022/12/11 08:37:39;;;;;;;21.65;13.27;;;-1.00;99.90;;;;;;5032751;28;20057;-51
2022/12/11 08:40:24;;;;;;;16.83;11.40;;;-1.00;99.90;;;;;;5031332;28;20075;-56
2022/12/11 08:43:10;;;;;;;18.48;11.95;;;-0.90;99.90;;;;;;5032183;28;20559;-55
2022/12/11 08:45:56;;;;;;;20.42;12.25;;;-1.00;99.90;;;;;;5032104;28;20113;-48
2022/12/11 08:48:43;;;;;;;18.58;11.77;;;-1.00;99.90;;;;;;5032198;28;20025;-55
2022/12/11 08:51:29;;;;;;;21.77;12.88;;;-1.00;99.90;;;;;;5031577;28;20707;-52
2022/12/11 08:54:15;;;;;;;21.98;13.65;;;-0.90;99.90;;;;;;5032835;28;20162;-56
2022/12/11 08:57:01;;;;;;;19.02;11.23;;;-0.80;99.90;;;;;;5032687;28;20449;-56
2022/12/11 08:59:47;;;;;;;20.95;12.55;;;-0.80;99.90;;;;;;5031956;28;20026;-53
2022/12/11 09:02:33;;;;;;;18.38;11.85;;;-0.80;99.90;;;;;;5031802;28;20029;-54
2022/12/11 09:05:19;;;;;;;21.25;13.02;;;-0.90;99.90;;;;;;5025867;28;20533;-53
2022/12/11 09:08:06;;;;;;;18.60;12.07;;;-0.90;99.90;;;;;;5011983;28;20022;-53
2022/12/11 09:10:51;;;;;;;22.50;12.95;;;-0.90;99.90;;;;;;5011968;28;20487;-56
2022/12/11 09:13:38;;;;;;;18.30;12.57;;;-0.80;99.90;;;;;;5012809;28;20414;-57
2022/12/11 09:16:26;;;;;;;19.95;12.63;;;-0.80;99.90;;;;;;5011794;28;20064;-52
2022/12/11 09:19:13;;;;;;;21.45;12.43;;;-0.80;99.90;;;;;;5012340;28;20036;-55
2022/12/11 09:22:00;;;;;;;20.52;13.05;;;-0.80;99.90;;;;;;5012130;28;20024;-56
2022/12/11 09:24:46;;;;;;;18.85;12.82;;;-0.90;99.90;;;;;;4997826;28;20383;-54
2022/12/11 09:27:33;;;;;;;21.73;13.23;;;-0.90;99.90;;;;;;5012011;28;20029;-53
2022/12/11 09:30:19;;;;;;;23.92;13.30;;;-1.00;99.90;;;;;;5011427;28;20045;-50
2022/12/11 09:33:04;;;;;;;21.95;13.90;;;-1.00;99.90;;;;;;5012808;28;20034;-49
2022/12/11 09:36:01;;;;;;;24.00;13.05;;;-0.90;99.90;;;;;;5012444;28;20040;-54
2022/12/11 09:38:48;;;;;;;21.23;12.70;;;-0.90;99.90;;;;;;5012040;28;20068;-52
2022/12/11 09:41:36;;;;;;;20.17;11.82;;;-0.90;99.90;;;;;;5010126;28;20426;-51
2022/12/11 09:44:39;;;;;;;21.95;11.75;;;-0.90;99.90;;;;;;5010375;28;20029;-51
2022/12/11 09:47:39;;;;;;;20.80;12.63;;;-0.80;99.90;;;;;;4992858;28;20037;-49
2022/12/11 09:50:31;;;;;;;25.88;13.77;;;-0.80;99.90;;;;;;5009213;28;20037;-50
2022/12/11 09:53:31;;;;;;;19.10;11.88;;;-1.00;99.90;;;;;;5011527;28;20025;-51
2022/12/11 09:56:22;;;;;;;19.20;10.95;;;-1.00;99.90;;;;;;5004644;28;20058;-50
2022/12/11 09:59:15;;;;;;;17.92;10.88;;;-1.00;99.90;;;;;;4991547;28;20037;-58
2022/12/11 10:02:19;;;;;;;19.27;10.93;;;-0.90;99.90;;;;;;5007990;28;20064;-53
2022/12/11 10:05:26;;;;;;;18.30;10.88;;;-0.90;99.90;;;;;;5010281;28;20030;-54
2022/12/11 10:08:49;;;;;;;18.88;11.75;;;-0.80;99.90;;;;;;5007104;28;20025;-56
2022/12/11 10:12:10;;;;;;;19.33;10.77;;;-0.90;99.90;;;;;;5008842;28;20025;-58
2022/12/11 10:15:27;;;;;;;18.55;10.57;;;-0.90;99.90;;;;;;4993249;28;20112;-54
2022/12/11 10:18:20;;;;;;;20.25;12.52;;;-0.90;99.90;;;;;;5011303;28;20030;-57
2022/12/11 10:21:06;;;;;;;19.67;12.25;;;-0.80;99.90;;;;;;5015725;28;20065;-53
2022/12/11 10:23:59;;;;;;;18.83;12.13;;;-0.90;99.90;;;;;;5010999;28;20037;-58
2022/12/11 10:26:46;;;;;;;23.83;12.30;;;-0.70;99.90;;;;;;5012066;28;20025;-57
2022/12/11 10:29:32;;;;;;;30.73;17.00;;;-0.60;99.90;;;;;;5005941;28;20029;-53
2022/12/11 10:32:23;;;;;;;26.48;14.90;;;-0.70;99.90;;;;;;5006756;28;20084;-52
2022/12/11 10:35:24;;;;;;;25.52;13.75;;;-0.50;99.90;;;;;;5013640;28;20034;-55
2022/12/11 10:38:18;;;;;;;35.00;18.55;;;-0.50;99.90;;;;;;5006522;28;20101;-53
2022/12/11 10:41:12;;;;;;;19.15;11.35;;;-0.40;99.90;;;;;;5009959;28;20022;-55
2022/12/11 10:44:00;;;;;;;18.40;12.43;;;-0.50;99.90;;;;;;5002669;28;20034;-56
2022/12/11 10:47:07;;;;;;;19.33;11.25;;;-0.50;99.90;;;;;;5013163;28;20032;-56
2022/12/11 10:49:57;;;;;;;17.75;10.77;;;-0.50;99.90;;;;;;5007589;28;20025;-56
2022/12/11 10:52:44;;;;;;;21.30;11.32;;;-0.60;99.90;;;;;;5019204;28;20026;-54
2022/12/11 10:55:46;;;;;;;19.33;11.43;;;-0.60;99.90;;;;;;5002717;28;20038;-55
2022/12/11 10:58:37;;;;;;;20.48;11.70;;;-0.60;99.90;;;;;;5005803;28;20065;-55
2022/12/11 11:01:26;;;;;;;19.77;11.65;;;-0.70;99.90;;;;;;5005849;28;20037;-51
2022/12/11 11:04:22;;;;;;;22.20;12.45;;;-0.70;99.90;;;;;;5009451;28;20505;-59
2022/12/11 11:07:13;;;;;;;19.67;11.88;;;-0.70;99.90;;;;;;5003661;28;20026;-57
2022/12/11 11:10:17;;;;;;;23.52;13.07;;;-0.70;99.90;;;;;;5010840;28;20029;-56
2022/12/11 11:13:15;;;;;;;20.70;11.98;;;-0.70;99.90;;;;;;4990911;28;20037;-57
2022/12/11 11:16:08;;;;;;;20.02;12.45;;;-0.70;99.90;;;;;;4984479;28;20065;-54
2022/12/11 11:18:56;;;;;;;20.02;11.82;;;-0.70;99.90;;;;;;5005329;28;20045;-55
2022/12/11 11:21:49;;;;;;;20.75;13.02;;;-0.60;99.90;;;;;;5008508;28;20100;-53
2022/12/11 11:24:43;;;;;;;21.60;12.20;;;-0.50;99.90;;;;;;5011653;28;20578;-56
2022/12/11 11:27:44;;;;;;;21.77;12.75;;;-0.40;99.90;;;;;;5008939;28;20041;-55
2022/12/11 11:30:38;;;;;;;18.98;11.75;;;-0.50;99.90;;;;;;5001403;28;20029;-52
2022/12/11 11:33:24;;;;;;;18.20;11.18;;;-0.70;99.90;;;;;;5001995;28;20409;-55
2022/12/11 11:36:28;;;;;;;20.70;12.75;;;-0.60;99.90;;;;;;5006759;28;20491;-52
2022/12/11 11:39:39;;;;;;;18.92;12.23;;;-0.60;99.90;;;;;;5008158;28;20036;-57
2022/12/11 11:42:58;;;;;;;17.88;11.63;;;-0.70;99.90;;;;;;5012137;28;20085;-53
2022/12/11 11:46:00;;;;;;;20.38;12.45;;;-0.60;99.90;;;;;;5005811;28;20033;-54
2022/12/11 11:49:09;;;;;;;19.90;12.43;;;-0.50;99.90;;;;;;5001802;28;20631;-56
2022/12/11 11:52:16;;;;;;;21.25;12.20;;;-0.50;99.90;;;;;;5008571;28;20022;-55
2022/12/11 11:55:08;;;;;;;21.08;12.82;;;-0.50;99.90;;;;;;5008060;28;20061;-59
2022/12/11 11:57:59;;;;;;;19.60;11.90;;;-0.50;99.90;;;;;;5009101;28;20113;-52
2022/12/11 12:00:45;;;;;;;21.92;12.70;;;-0.50;99.90;;;;;;5012597;28;20145;-54
2022/12/11 12:03:31;;;;;;;22.25;13.00;;;-0.60;99.90;;;;;;5011909;28;20026;-58
2022/12/11 12:06:39;;;;;;;20.48;12.27;;;-0.80;99.90;;;;;;5012822;28;20029;-57
2022/12/11 12:09:43;;;;;;;20.48;12.20;;;-0.80;99.90;;;;;;5009697;28;20430;-55
2022/12/11 12:12:32;;;;;;;20.75;12.32;;;-0.70;99.90;;;;;;5007281;28;20390;-54
2022/12/11 12:15:52;;;;;;;20.42;12.48;;;-0.60;99.90;;;;;;4991162;28;20041;-56
2022/12/11 12:19:02;;;;;;;19.63;11.77;;;-0.50;99.90;;;;;;5006440;28;20909;-56
2022/12/11 12:21:51;;;;;;;19.35;11.50;;;-0.40;99.90;;;;;;5009913;28;20025;-53
2022/12/11 12:24:51;;;;;;;20.08;11.88;;;-0.40;99.90;;;;;;5023556;28;20022;-57
2022/12/11 12:27:44;;;;;;;20.02;13.02;;;-0.40;99.90;;;;;;5024726;28;20029;-53
2022/12/11 12:30:59;;;;;;;20.77;12.65;;;-0.40;99.90;;;;;;5004903;28;20030;-55
2022/12/11 12:34:15;;;;;;;19.15;12.63;;;-0.60;99.90;;;;;;5007111;28;20029;-53
2022/12/11 12:37:31;;;;;;;21.67;12.90;;;-0.50;99.90;;;;;;4995132;28;20578;-54
2022/12/11 12:40:43;;;;;;;21.52;13.35;;;-0.50;99.90;;;;;;5005420;28;20042;-57
2022/12/11 12:43:35;;;;;;;14.60;9.98;;;-0.50;99.90;;;;;;5010293;28;20037;-52
2022/12/11 12:46:43;;;;;;;15.32;9.50;;;-0.60;99.90;;;;;;5002572;28;20022;-51
2022/12/11 12:49:35;;;;;;;13.30;7.97;;;-0.50;99.90;;;;;;5010148;28;20105;-54
2022/12/11 12:52:37;;;;;;;15.98;8.23;;;-0.50;99.90;;;;;;5002921;28;20490;-53
2022/12/11 12:55:30;;;;;;;13.32;9.23;;;-0.50;99.90;;;;;;5020263;28;20056;-58
2022/12/11 12:58:28;;;;;;;17.23;9.93;;;-0.60;99.90;;;;;;5014716;28;20034;-55
2022/12/11 13:01:20;;;;;;;18.27;11.32;;;-0.60;99.90;;;;;;5009918;28;20022;-54
2022/12/11 13:04:06;;;;;;;16.27;10.82;;;-0.50;99.90;;;;;;5010373;28;20744;-59
2022/12/11 13:06:52;;;;;;;17.35;10.27;;;-0.50;99.90;;;;;;5008704;28;20487;-57
2022/12/11 13:09:38;;;;;;;17.27;10.90;;;-0.60;99.90;;;;;;5005859;28;20037;-54
2022/12/11 13:12:44;;;;;;;28.25;14.55;;;-0.60;99.90;;;;;;5012720;28;20040;-55
2022/12/11 13:15:34;;;;;;;17.63;11.43;;;-0.60;99.90;;;;;;4993883;28;20030;-59
2022/12/11 13:18:38;;;;;;;22.20;12.23;;;-0.40;99.90;;;;;;5004643;28;20026;-54
2022/12/11 13:21:24;;;;;;;22.98;13.00;;;-0.60;99.90;;;;;;5013513;28;20026;-55
2022/12/11 13:24:20;;;;;;;20.75;12.45;;;-0.60;99.90;;;;;;5010710;28;20078;-52
2022/12/11 13:27:20;;;;;;;20.60;12.10;;;-0.60;99.90;;;;;;5006033;28;20018;-57
2022/12/11 13:30:18;;;;;;;19.67;12.50;;;-0.40;99.90;;;;;;5006597;28;20025;-55
2022/12/11 13:33:16;;;;;;;31.00;16.58;;;-0.40;99.90;;;;;;5014602;28;20129;-56
2022/12/11 13:36:08;;;;;;;31.80;17.85;;;-0.50;99.90;;;;;;5021233;28;20041;-58
2022/12/11 13:39:04;;;;;;;21.98;13.35;;;-0.50;99.90;;;;;;5010170;28;20584;-55
2022/12/11 13:42:47;;;;;;;22.35;13.18;;;-0.40;99.90;;;;;;5006816;28;20033;-56
2022/12/11 13:45:47;;;;;;;22.23;12.32;;;-0.50;99.90;;;;;;5008122;28;20022;-54
2022/12/11 13:48:42;;;;;;;22.85;13.48;;;-0.70;99.90;;;;;;5010066;28;20479;-58
2022/12/11 13:51:30;;;;;;;19.45;11.30;;;-0.80;99.90;;;;;;5007633;28;20169;-58
2022/12/11 13:54:18;;;;;;;21.42;12.32;;;-0.80;99.90;;;;;;5015607;28;20026;-57
2022/12/11 13:57:07;;;;;;;19.70;11.30;;;-0.70;99.90;;;;;;5011765;28;20062;-57
2022/12/11 13:59:55;;;;;;;20.52;12.50;;;-0.80;99.90;;;;;;5008523;28;20084;-54
2022/12/11 14:02:41;;;;;;;20.67;12.55;;;-1.00;99.90;;;;;;5015976;28;20080;-55
2022/12/11 14:05:27;;;;;;;20.42;13.02;;;-1.10;99.90;;;;;;5012396;28;20034;-56
2022/12/11 14:08:21;;;;;;;21.80;12.40;;;-1.30;99.90;;;;;;5014089;28;20030;-58
2022/12/11 14:11:07;;;;;;;25.90;13.98;;;-1.30;99.90;;;;;;5009776;28;20029;-58
2022/12/11 14:13:56;;;;;;;21.13;12.45;;;-1.30;99.90;;;;;;5014953;28;20041;-56
2022/12/11 14:16:42;;;;;;;23.25;13.63;;;-1.30;99.90;;;;;;5009716;28;20110;-54
2022/12/11 14:19:31;;;;;;;20.23;12.93;;;-1.20;99.90;;;;;;5006962;28;20038;-55
2022/12/11 14:22:21;;;;;;;24.40;12.82;;;-1.10;99.90;;;;;;4993705;28;20038;-60
2022/12/11 14:25:21;;;;;;;19.63;13.00;;;-1.20;99.90;;;;;;5010948;28;20032;-54
2022/12/11 14:28:17;;;;;;;20.40;12.75;;;-1.10;99.90;;;;;;5006801;28;20187;-56
2022/12/11 14:31:07;;;;;;;22.55;12.38;;;-1.10;99.90;;;;;;5004399;28;20072;-53
2022/12/11 14:34:01;;;;;;;21.92;12.93;;;-1.20;99.90;;;;;;4990609;28;20053;-55
2022/12/11 14:36:49;;;;;;;25.95;14.93;;;-1.30;99.90;;;;;;5004484;28;20034;-51